sensor_id;sensor_type;location;lat;lon;timestamp;P1;durP1;ratioP1;P2;durP2;ratioP2
44204;SDS011;30163;42.698;23.344;2023-04-03T00:01:26;33.55;;;18.27;;
44204;SDS011;30163;42.698;23.344;2023-04-03T00:03:52;38.78;;;18.65;;
44204;SDS011;30163;42.698;23.344;2023-04-03T00:06:17;39.08;;;18.23;;
44204;SDS011;30163;42.698;23.344;2023-04-03T00:08:43;40.13;;;18.55;;
44204;SDS011;30163;42.698;23.344;2023-04-03T00:11:08;42.28;;;19.08;;
44204;SDS011;30163;42.698;23.344;2023-04-03T00:13:34;43.08;;;15.93;;
44204;SDS011;30163;42.698;23.344;2023-04-03T00:16:00;38.88;;;18.67;;
44204;SDS011;30163;42.698;23.344;2023-04-03T00:18:25;52.42;;;20.45;;
44204;SDS011;30163;42.698;23.344;2023-04-03T00:20:50;48.17;;;24.90;;
44204;SDS011;30163;42.698;23.344;2023-04-03T00:23:16;52.33;;;24.30;;
44204;SDS011;30163;42.698;23.344;2023-04-03T00:25:41;53.95;;;27.45;;
44204;SDS011;30163;42.698;23.344;2023-04-03T00:28:07;56.90;;;27.70;;
44204;SDS011;30163;42.698;23.344;2023-04-03T00:30:32;66.28;;;29.02;;
44204;SDS011;30163;42.698;23.344;2023-04-03T00:32:58;51.00;;;26.75;;
44204;SDS011;30163;42.698;23.344;2023-04-03T00:35:23;53.22;;;26.52;;
44204;SDS011;30163;42.698;23.344;2023-04-03T00:37:52;50.90;;;26.17;;
44204;SDS011;30163;42.698;23.344;2023-04-03T00:40:18;70.50;;;30.65;;
44204;SDS011;30163;42.698;23.344;2023-04-03T00:42:44;61.00;;;31.10;;
44204;SDS011;30163;42.698;23.344;2023-04-03T00:47:36;54.58;;;26.73;;
44204;SDS011;30163;42.698;23.344;2023-04-03T00:50:02;64.30;;;29.40;;
44204;SDS011;30163;42.698;23.344;2023-04-03T00:52:28;52.83;;;25.02;;
44204;SDS011;30163;42.698;23.344;2023-04-03T00:54:57;76.72;;;30.13;;
44204;SDS011;30163;42.698;23.344;2023-04-03T00:57:23;46.53;;;25.73;;
44204;SDS011;30163;42.698;23.344;2023-04-03T00:59:49;63.97;;;27.70;;
44204;SDS011;30163;42.698;23.344;2023-04-03T01:02:16;47.60;;;22.13;;
44204;SDS011;30163;42.698;23.344;2023-04-03T01:04:41;30.60;;;16.35;;
44204;SDS011;30163;42.698;23.344;2023-04-03T01:07:11;31.67;;;14.57;;
44204;SDS011;30163;42.698;23.344;2023-04-03T01:09:37;30.30;;;14.13;;
44204;SDS011;30163;42.698;23.344;2023-04-03T01:12:14;25.45;;;12.32;;
44204;SDS011;30163;42.698;23.344;2023-04-03T01:14:41;26.23;;;11.10;;
44204;SDS011;30163;42.698;23.344;2023-04-03T01:17:50;22.17;;;11.57;;
44204;SDS011;30163;42.698;23.344;2023-04-03T01:22:40;23.17;;;10.32;;
44204;SDS011;30163;42.698;23.344;2023-04-03T01:25:06;24.70;;;11.35;;
44204;SDS011;30163;42.698;23.344;2023-04-03T01:27:31;22.98;;;11.30;;
44204;SDS011;30163;42.698;23.344;2023-04-03T01:29:57;20.95;;;10.98;;
44204;SDS011;30163;42.698;23.344;2023-04-03T01:32:23;19.92;;;9.52;;
44204;SDS011;30163;42.698;23.344;2023-04-03T01:34:48;24.80;;;10.20;;
44204;SDS011;30163;42.698;23.344;2023-04-03T01:37:13;26.13;;;9.30;;
44204;SDS011;30163;42.698;23.344;2023-04-03T01:39:39;28.00;;;9.30;;
44204;SDS011;30163;42.698;23.344;2023-04-03T01:42:04;20.58;;;9.00;;
44204;SDS011;30163;42.698;23.344;2023-04-03T01:44:30;27.75;;;10.45;;
44204;SDS011;30163;42.698;23.344;2023-04-03T01:46:56;19.65;;;8.82;;
44204;SDS011;30163;42.698;23.344;2023-04-03T01:49:21;18.83;;;8.80;;
44204;SDS011;30163;42.698;23.344;2023-04-03T01:51:46;23.85;;;9.20;;
44204;SDS011;30163;42.698;23.344;2023-04-03T01:54:12;17.95;;;9.35;;
44204;SDS011;30163;42.698;23.344;2023-04-03T01:56:37;19.25;;;8.15;;
44204;SDS011;30163;42.698;23.344;2023-04-03T01:59:04;17.45;;;8.75;;
44204;SDS011;30163;42.698;23.344;2023-04-03T02:01:29;19.60;;;8.88;;
44204;SDS011;30163;42.698;23.344;2023-04-03T02:03:55;12.52;;;6.82;;
44204;SDS011;30163;42.698;23.344;2023-04-03T02:06:20;14.88;;;6.93;;
44204;SDS011;30163;42.698;23.344;2023-04-03T02:08:46;11.07;;;6.78;;
44204;SDS011;30163;42.698;23.344;2023-04-03T02:11:11;13.63;;;5.70;;
44204;SDS011;30163;42.698;23.344;2023-04-03T02:13:36;29.35;;;10.20;;
44204;SDS011;30163;42.698;23.344;2023-04-03T02:16:08;24.25;;;10.15;;
44204;SDS011;30163;42.698;23.344;2023-04-03T02:18:34;12.55;;;6.80;;
44204;SDS011;30163;42.698;23.344;2023-04-03T02:21:00;14.23;;;7.97;;
44204;SDS011;30163;42.698;23.344;2023-04-03T02:23:25;14.82;;;6.45;;
44204;SDS011;30163;42.698;23.344;2023-04-03T02:25:51;18.52;;;8.45;;
44204;SDS011;30163;42.698;23.344;2023-04-03T02:28:16;16.02;;;7.82;;
44204;SDS011;30163;42.698;23.344;2023-04-03T02:30:41;14.98;;;8.65;;
44204;SDS011;30163;42.698;23.344;2023-04-03T02:33:07;14.25;;;7.68;;
44204;SDS011;30163;42.698;23.344;2023-04-03T02:35:32;24.33;;;9.23;;
44204;SDS011;30163;42.698;23.344;2023-04-03T02:37:58;25.70;;;8.90;;
44204;SDS011;30163;42.698;23.344;2023-04-03T02:40:23;19.48;;;9.02;;
44204;SDS011;30163;42.698;23.344;2023-04-03T02:42:48;20.17;;;8.82;;
44204;SDS011;30163;42.698;23.344;2023-04-03T02:45:14;27.25;;;9.75;;
44204;SDS011;30163;42.698;23.344;2023-04-03T02:47:40;19.00;;;9.45;;
44204;SDS011;30163;42.698;23.344;2023-04-03T02:50:05;27.75;;;10.10;;
44204;SDS011;30163;42.698;23.344;2023-04-03T02:52:30;20.55;;;9.75;;
44204;SDS011;30163;42.698;23.344;2023-04-03T02:54:56;18.35;;;9.32;;
44204;SDS011;30163;42.698;23.344;2023-04-03T02:57:22;25.10;;;9.75;;
44204;SDS011;30163;42.698;23.344;2023-04-03T02:59:47;21.95;;;9.73;;
44204;SDS011;30163;42.698;23.344;2023-04-03T03:02:13;17.33;;;10.18;;
44204;SDS011;30163;42.698;23.344;2023-04-03T03:04:38;18.33;;;10.32;;
44204;SDS011;30163;42.698;23.344;2023-04-03T03:07:03;23.52;;;10.25;;
44204;SDS011;30163;42.698;23.344;2023-04-03T03:09:29;21.70;;;10.15;;
44204;SDS011;30163;42.698;23.344;2023-04-03T03:11:55;24.67;;;10.70;;
44204;SDS011;30163;42.698;23.344;2023-04-03T03:14:20;24.45;;;12.35;;
44204;SDS011;30163;42.698;23.344;2023-04-03T03:16:45;32.13;;;12.10;;
44204;SDS011;30163;42.698;23.344;2023-04-03T03:19:11;29.85;;;11.88;;
44204;SDS011;30163;42.698;23.344;2023-04-03T03:21:36;41.60;;;12.95;;
44204;SDS011;30163;42.698;23.344;2023-04-03T03:24:02;43.58;;;14.15;;
44204;SDS011;30163;42.698;23.344;2023-04-03T03:26:27;28.60;;;12.35;;
44204;SDS011;30163;42.698;23.344;2023-04-03T03:28:53;29.30;;;13.43;;
44204;SDS011;30163;42.698;23.344;2023-04-03T03:31:18;58.10;;;15.38;;
44204;SDS011;30163;42.698;23.344;2023-04-03T03:33:44;38.15;;;13.98;;
44204;SDS011;30163;42.698;23.344;2023-04-03T03:36:09;66.05;;;27.80;;
44204;SDS011;30163;42.698;23.344;2023-04-03T03:38:36;42.47;;;20.77;;
44204;SDS011;30163;42.698;23.344;2023-04-03T03:41:01;47.47;;;17.45;;
44204;SDS011;30163;42.698;23.344;2023-04-03T03:43:26;38.38;;;14.95;;
44204;SDS011;30163;42.698;23.344;2023-04-03T03:45:52;40.15;;;15.68;;
44204;SDS011;30163;42.698;23.344;2023-04-03T03:48:18;34.20;;;13.90;;
44204;SDS011;30163;42.698;23.344;2023-04-03T03:50:44;44.47;;;16.75;;
44204;SDS011;30163;42.698;23.344;2023-04-03T03:53:10;61.85;;;20.10;;
44204;SDS011;30163;42.698;23.344;2023-04-03T03:55:35;66.13;;;22.70;;
44204;SDS011;30163;42.698;23.344;2023-04-03T03:58:00;56.97;;;19.48;;
44204;SDS011;30163;42.698;23.344;2023-04-03T04:00:26;58.67;;;21.60;;
44204;SDS011;30163;42.698;23.344;2023-04-03T04:02:52;48.35;;;23.92;;
44204;SDS011;30163;42.698;23.344;2023-04-03T04:05:17;59.00;;;20.17;;
44204;SDS011;30163;42.698;23.344;2023-04-03T04:07:43;70.68;;;25.25;;
44204;SDS011;30163;42.698;23.344;2023-04-03T04:10:08;69.18;;;25.48;;
44204;SDS011;30163;42.698;23.344;2023-04-03T04:12:34;62.75;;;23.88;;
44204;SDS011;30163;42.698;23.344;2023-04-03T04:15:00;52.20;;;20.60;;
44204;SDS011;30163;42.698;23.344;2023-04-03T04:17:26;75.63;;;21.90;;
44204;SDS011;30163;42.698;23.344;2023-04-03T04:19:51;56.28;;;20.17;;
44204;SDS011;30163;42.698;23.344;2023-04-03T04:22:16;59.75;;;20.25;;
44204;SDS011;30163;42.698;23.344;2023-04-03T04:24:42;49.25;;;19.85;;
44204;SDS011;30163;42.698;23.344;2023-04-03T04:27:07;41.42;;;18.63;;
44204;SDS011;30163;42.698;23.344;2023-04-03T04:29:32;68.10;;;22.40;;
44204;SDS011;30163;42.698;23.344;2023-04-03T04:32:01;87.28;;;35.78;;
44204;SDS011;30163;42.698;23.344;2023-04-03T04:34:26;61.78;;;28.27;;
44204;SDS011;30163;42.698;23.344;2023-04-03T04:36:52;80.53;;;30.20;;
44204;SDS011;30163;42.698;23.344;2023-04-03T04:39:17;63.53;;;27.50;;
44204;SDS011;30163;42.698;23.344;2023-04-03T04:41:42;57.53;;;27.23;;
44204;SDS011;30163;42.698;23.344;2023-04-03T04:44:08;104.03;;;30.92;;
44204;SDS011;30163;42.698;23.344;2023-04-03T04:46:35;87.82;;;29.00;;
44204;SDS011;30163;42.698;23.344;2023-04-03T04:49:01;60.13;;;24.75;;
44204;SDS011;30163;42.698;23.344;2023-04-03T04:51:26;87.32;;;41.25;;
44204;SDS011;30163;42.698;23.344;2023-04-03T04:53:51;67.00;;;34.15;;
44204;SDS011;30163;42.698;23.344;2023-04-03T04:56:17;78.10;;;29.25;;
44204;SDS011;30163;42.698;23.344;2023-04-03T04:58:42;62.58;;;25.02;;
44204;SDS011;30163;42.698;23.344;2023-04-03T05:01:08;67.47;;;28.65;;
44204;SDS011;30163;42.698;23.344;2023-04-03T05:03:34;69.72;;;23.45;;
44204;SDS011;30163;42.698;23.344;2023-04-03T05:05:59;73.35;;;23.77;;
44204;SDS011;30163;42.698;23.344;2023-04-03T05:08:25;67.97;;;23.77;;
44204;SDS011;30163;42.698;23.344;2023-04-03T05:10:50;71.70;;;24.95;;
44204;SDS011;30163;42.698;23.344;2023-04-03T05:13:16;53.22;;;23.95;;
44204;SDS011;30163;42.698;23.344;2023-04-03T05:15:41;76.07;;;24.20;;
44204;SDS011;30163;42.698;23.344;2023-04-03T05:18:06;67.63;;;23.83;;
44204;SDS011;30163;42.698;23.344;2023-04-03T05:20:32;63.17;;;24.48;;
44204;SDS011;30163;42.698;23.344;2023-04-03T05:22:58;64.78;;;23.63;;
44204;SDS011;30163;42.698;23.344;2023-04-03T05:25:23;65.07;;;25.40;;
44204;SDS011;30163;42.698;23.344;2023-04-03T05:27:49;72.07;;;26.85;;
44204;SDS011;30163;42.698;23.344;2023-04-03T05:30:14;67.85;;;25.35;;
44204;SDS011;30163;42.698;23.344;2023-04-03T05:32:40;58.85;;;23.80;;
44204;SDS011;30163;42.698;23.344;2023-04-03T05:35:06;69.68;;;27.42;;
44204;SDS011;30163;42.698;23.344;2023-04-03T05:37:32;89.75;;;28.08;;
44204;SDS011;30163;42.698;23.344;2023-04-03T05:39:58;61.67;;;30.45;;
44204;SDS011;30163;42.698;23.344;2023-04-03T05:42:23;74.03;;;28.13;;
44204;SDS011;30163;42.698;23.344;2023-04-03T05:44:48;53.13;;;21.83;;
44204;SDS011;30163;42.698;23.344;2023-04-03T05:47:15;48.05;;;21.50;;
44204;SDS011;30163;42.698;23.344;2023-04-03T05:49:40;42.92;;;19.00;;
44204;SDS011;30163;42.698;23.344;2023-04-03T05:52:09;63.92;;;20.85;;
44204;SDS011;30163;42.698;23.344;2023-04-03T05:54:36;62.17;;;24.33;;
44204;SDS011;30163;42.698;23.344;2023-04-03T05:57:02;65.20;;;22.73;;
44204;SDS011;30163;42.698;23.344;2023-04-03T05:59:27;64.13;;;23.48;;
44204;SDS011;30163;42.698;23.344;2023-04-03T06:01:53;40.40;;;19.70;;
44204;SDS011;30163;42.698;23.344;2023-04-03T06:04:18;50.90;;;22.52;;
44204;SDS011;30163;42.698;23.344;2023-04-03T06:06:51;44.78;;;24.38;;
44204;SDS011;30163;42.698;23.344;2023-04-03T06:09:18;66.20;;;26.83;;
44204;SDS011;30163;42.698;23.344;2023-04-03T06:11:44;76.15;;;27.05;;
44204;SDS011;30163;42.698;23.344;2023-04-03T06:14:10;64.28;;;31.02;;
44204;SDS011;30163;42.698;23.344;2023-04-03T06:16:35;81.38;;;35.08;;
44204;SDS011;30163;42.698;23.344;2023-04-03T06:19:01;76.80;;;31.85;;
44204;SDS011;30163;42.698;23.344;2023-04-03T06:21:27;64.18;;;29.83;;
44204;SDS011;30163;42.698;23.344;2023-04-03T06:23:52;62.13;;;26.63;;
44204;SDS011;30163;42.698;23.344;2023-04-03T06:26:18;56.88;;;27.38;;
44204;SDS011;30163;42.698;23.344;2023-04-03T06:28:43;58.38;;;24.17;;
44204;SDS011;30163;42.698;23.344;2023-04-03T06:31:09;76.05;;;26.77;;
44204;SDS011;30163;42.698;23.344;2023-04-03T06:33:34;72.10;;;25.55;;
44204;SDS011;30163;42.698;23.344;2023-04-03T06:36:03;50.90;;;22.27;;
44204;SDS011;30163;42.698;23.344;2023-04-03T06:38:28;55.35;;;24.13;;
44204;SDS011;30163;42.698;23.344;2023-04-03T06:40:54;51.60;;;23.23;;
44204;SDS011;30163;42.698;23.344;2023-04-03T06:43:21;52.13;;;22.38;;
44204;SDS011;30163;42.698;23.344;2023-04-03T06:45:46;58.08;;;23.33;;
44204;SDS011;30163;42.698;23.344;2023-04-03T06:48:12;52.10;;;25.38;;
44204;SDS011;30163;42.698;23.344;2023-04-03T06:50:37;56.90;;;26.40;;
44204;SDS011;30163;42.698;23.344;2023-04-03T06:53:03;68.00;;;27.27;;
44204;SDS011;30163;42.698;23.344;2023-04-03T06:55:28;63.08;;;28.95;;
44204;SDS011;30163;42.698;23.344;2023-04-03T06:57:54;57.13;;;26.73;;
44204;SDS011;30163;42.698;23.344;2023-04-03T07:00:20;69.15;;;25.92;;
44204;SDS011;30163;42.698;23.344;2023-04-03T07:02:46;69.13;;;26.73;;
44204;SDS011;30163;42.698;23.344;2023-04-03T07:05:11;69.55;;;26.60;;
44204;SDS011;30163;42.698;23.344;2023-04-03T07:07:37;80.05;;;28.20;;
44204;SDS011;30163;42.698;23.344;2023-04-03T07:10:03;55.20;;;25.60;;
44204;SDS011;30163;42.698;23.344;2023-04-03T07:12:29;59.08;;;24.42;;
44204;SDS011;30163;42.698;23.344;2023-04-03T07:14:54;59.85;;;25.63;;
44204;SDS011;30163;42.698;23.344;2023-04-03T07:17:20;61.88;;;26.20;;
44204;SDS011;30163;42.698;23.344;2023-04-03T07:19:46;63.92;;;27.38;;
44204;SDS011;30163;42.698;23.344;2023-04-03T07:22:11;54.00;;;24.55;;
44204;SDS011;30163;42.698;23.344;2023-04-03T07:24:37;67.63;;;25.60;;
44204;SDS011;30163;42.698;23.344;2023-04-03T07:27:02;52.42;;;24.80;;
44204;SDS011;30163;42.698;23.344;2023-04-03T07:29:29;64.70;;;24.23;;
44204;SDS011;30163;42.698;23.344;2023-04-03T07:31:55;72.10;;;24.73;;
44204;SDS011;30163;42.698;23.344;2023-04-03T07:34:21;56.70;;;20.33;;
44204;SDS011;30163;42.698;23.344;2023-04-03T07:36:46;59.08;;;22.63;;
44204;SDS011;30163;42.698;23.344;2023-04-03T07:39:11;43.00;;;19.70;;
44204;SDS011;30163;42.698;23.344;2023-04-03T07:41:37;55.85;;;21.90;;
44204;SDS011;30163;42.698;23.344;2023-04-03T07:44:03;55.28;;;23.25;;
44204;SDS011;30163;42.698;23.344;2023-04-03T07:46:29;60.05;;;22.38;;
44204;SDS011;30163;42.698;23.344;2023-04-03T07:48:55;45.22;;;20.02;;
44204;SDS011;30163;42.698;23.344;2023-04-03T07:51:20;47.50;;;19.08;;
44204;SDS011;30163;42.698;23.344;2023-04-03T07:53:46;52.17;;;20.45;;
44204;SDS011;30163;42.698;23.344;2023-04-03T07:56:11;60.05;;;19.35;;
44204;SDS011;30163;42.698;23.344;2023-04-03T07:58:36;50.58;;;17.80;;
44204;SDS011;30163;42.698;23.344;2023-04-03T08:01:04;37.85;;;17.52;;
44204;SDS011;30163;42.698;23.344;2023-04-03T08:03:29;45.20;;;21.88;;
44204;SDS011;30163;42.698;23.344;2023-04-03T08:06:00;69.20;;;23.83;;
44204;SDS011;30163;42.698;23.344;2023-04-03T08:08:27;52.17;;;22.52;;
44204;SDS011;30163;42.698;23.344;2023-04-03T08:10:54;69.60;;;22.73;;
44204;SDS011;30163;42.698;23.344;2023-04-03T08:13:20;44.72;;;20.48;;
44204;SDS011;30163;42.698;23.344;2023-04-03T08:15:46;50.30;;;20.95;;
44204;SDS011;30163;42.698;23.344;2023-04-03T08:18:11;52.13;;;21.70;;
44204;SDS011;30163;42.698;23.344;2023-04-03T08:20:37;51.30;;;21.25;;
44204;SDS011;30163;42.698;23.344;2023-04-03T08:23:03;58.00;;;19.98;;
44204;SDS011;30163;42.698;23.344;2023-04-03T08:25:28;55.28;;;20.15;;
44204;SDS011;30163;42.698;23.344;2023-04-03T08:27:54;40.08;;;18.75;;
44204;SDS011;30163;42.698;23.344;2023-04-03T08:30:20;46.53;;;18.55;;
44204;SDS011;30163;42.698;23.344;2023-04-03T08:32:45;46.83;;;19.25;;
44204;SDS011;30163;42.698;23.344;2023-04-03T08:35:11;44.53;;;17.02;;
44204;SDS011;30163;42.698;23.344;2023-04-03T08:37:36;37.92;;;17.90;;
44204;SDS011;30163;42.698;23.344;2023-04-03T08:40:05;61.70;;;17.63;;
44204;SDS011;30163;42.698;23.344;2023-04-03T08:45:25;55.88;;;25.00;;
44204;SDS011;30163;42.698;23.344;2023-04-03T08:47:54;50.80;;;19.73;;
44204;SDS011;30163;42.698;23.344;2023-04-03T08:50:26;44.20;;;19.23;;
44204;SDS011;30163;42.698;23.344;2023-04-03T08:52:58;47.05;;;21.20;;
44204;SDS011;30163;42.698;23.344;2023-04-03T08:58:00;56.35;;;18.88;;
44204;SDS011;30163;42.698;23.344;2023-04-03T09:00:26;36.20;;;17.92;;
44204;SDS011;30163;42.698;23.344;2023-04-03T09:02:54;34.83;;;15.15;;
44204;SDS011;30163;42.698;23.344;2023-04-03T09:05:24;41.28;;;18.77;;
44204;SDS011;30163;42.698;23.344;2023-04-03T09:10:23;41.75;;;16.80;;
44204;SDS011;30163;42.698;23.344;2023-04-03T09:13:51;30.67;;;14.10;;
44204;SDS011;30163;42.698;23.344;2023-04-03T09:15:47;46.65;;;14.27;;
44204;SDS011;30163;42.698;23.344;2023-04-03T09:18:27;43.72;;;15.65;;
44204;SDS011;30163;42.698;23.344;2023-04-03T09:21:36;32.70;;;15.85;;
44204;SDS011;30163;42.698;23.344;2023-04-03T09:23:46;29.33;;;15.75;;
44204;SDS011;30163;42.698;23.344;2023-04-03T09:26:17;26.23;;;15.63;;
44204;SDS011;30163;42.698;23.344;2023-04-03T09:28:46;46.35;;;18.98;;
44204;SDS011;30163;42.698;23.344;2023-04-03T09:31:46;43.55;;;18.92;;
44204;SDS011;30163;42.698;23.344;2023-04-03T09:34:15;44.37;;;19.30;;
44204;SDS011;30163;42.698;23.344;2023-04-03T09:36:44;31.05;;;17.00;;
44204;SDS011;30163;42.698;23.344;2023-04-03T09:39:18;40.25;;;16.98;;
44204;SDS011;30163;42.698;23.344;2023-04-03T09:41:54;41.10;;;18.83;;
44204;SDS011;30163;42.698;23.344;2023-04-03T09:44:25;48.47;;;19.27;;
44204;SDS011;30163;42.698;23.344;2023-04-03T09:46:53;48.75;;;18.50;;
44204;SDS011;30163;42.698;23.344;2023-04-03T09:49:18;42.58;;;20.85;;
44204;SDS011;30163;42.698;23.344;2023-04-03T09:51:44;52.45;;;20.92;;
44204;SDS011;30163;42.698;23.344;2023-04-03T09:56:54;61.25;;;20.67;;
44204;SDS011;30163;42.698;23.344;2023-04-03T09:59:21;59.65;;;21.67;;
44204;SDS011;30163;42.698;23.344;2023-04-03T10:04:38;51.47;;;19.25;;
44204;SDS011;30163;42.698;23.344;2023-04-03T10:07:03;45.00;;;18.15;;
44204;SDS011;30163;42.698;23.344;2023-04-03T10:09:54;42.20;;;16.42;;
44204;SDS011;30163;42.698;23.344;2023-04-03T10:12:22;47.17;;;17.70;;
44204;SDS011;30163;42.698;23.344;2023-04-03T10:17:29;38.72;;;16.45;;
44204;SDS011;30163;42.698;23.344;2023-04-03T10:25:03;40.20;;;16.75;;
44204;SDS011;30163;42.698;23.344;2023-04-03T10:29:57;47.95;;;17.95;;
44204;SDS011;30163;42.698;23.344;2023-04-03T10:40:37;44.70;;;16.08;;
44204;SDS011;30163;42.698;23.344;2023-04-03T10:43:06;39.22;;;13.55;;
44204;SDS011;30163;42.698;23.344;2023-04-03T10:48:25;32.80;;;12.93;;
44204;SDS011;30163;42.698;23.344;2023-04-03T10:51:03;31.35;;;12.73;;
44204;SDS011;30163;42.698;23.344;2023-04-03T10:58:45;37.05;;;14.20;;
44204;SDS011;30163;42.698;23.344;2023-04-03T11:01:14;41.83;;;15.00;;
44204;SDS011;30163;42.698;23.344;2023-04-03T11:03:43;40.55;;;11.50;;
44204;SDS011;30163;42.698;23.344;2023-04-03T11:06:11;35.55;;;11.25;;
44204;SDS011;30163;42.698;23.344;2023-04-03T11:08:44;42.08;;;12.43;;
44204;SDS011;30163;42.698;23.344;2023-04-03T11:11:13;44.17;;;10.98;;
44204;SDS011;30163;42.698;23.344;2023-04-03T11:13:49;25.63;;;8.93;;
44204;SDS011;30163;42.698;23.344;2023-04-03T11:16:24;28.40;;;7.95;;
44204;SDS011;30163;42.698;23.344;2023-04-03T11:21:37;32.35;;;7.43;;
44204;SDS011;30163;42.698;23.344;2023-04-03T11:24:05;20.02;;;6.47;;
44204;SDS011;30163;42.698;23.344;2023-04-03T11:26:35;15.57;;;6.10;;
44204;SDS011;30163;42.698;23.344;2023-04-03T11:29:10;29.83;;;6.60;;
44204;SDS011;30163;42.698;23.344;2023-04-03T11:36:47;17.48;;;6.07;;
44204;SDS011;30163;42.698;23.344;2023-04-03T11:39:24;14.13;;;6.13;;
44204;SDS011;30163;42.698;23.344;2023-04-03T11:41:50;9.93;;;6.35;;
44204;SDS011;30163;42.698;23.344;2023-04-03T11:44:35;11.50;;;6.50;;
44204;SDS011;30163;42.698;23.344;2023-04-03T11:47:05;9.68;;;5.38;;
44204;SDS011;30163;42.698;23.344;2023-04-03T11:53:25;8.35;;;5.32;;
44204;SDS011;30163;42.698;23.344;2023-04-03T11:58:01;19.80;;;6.70;;
44204;SDS011;30163;42.698;23.344;2023-04-03T12:08:27;10.32;;;5.97;;
44204;SDS011;30163;42.698;23.344;2023-04-03T12:13:33;10.13;;;5.28;;
44204;SDS011;30163;42.698;23.344;2023-04-03T12:15:59;11.02;;;4.95;;
44204;SDS011;30163;42.698;23.344;2023-04-03T12:20:57;14.57;;;5.35;;
44204;SDS011;30163;42.698;23.344;2023-04-03T12:23:26;17.67;;;5.82;;
44204;SDS011;30163;42.698;23.344;2023-04-03T12:25:52;8.00;;;5.50;;
44204;SDS011;30163;42.698;23.344;2023-04-03T12:28:24;10.18;;;6.15;;
44204;SDS011;30163;42.698;23.344;2023-04-03T12:30:49;13.85;;;7.35;;
44204;SDS011;30163;42.698;23.344;2023-04-03T12:34:01;11.73;;;5.30;;
44204;SDS011;30163;42.698;23.344;2023-04-03T12:38:42;13.13;;;6.00;;
44204;SDS011;30163;42.698;23.344;2023-04-03T12:41:31;15.10;;;7.00;;
44204;SDS011;30163;42.698;23.344;2023-04-03T12:46:52;25.50;;;10.90;;
44204;SDS011;30163;42.698;23.344;2023-04-03T12:49:39;23.77;;;11.13;;
44204;SDS011;30163;42.698;23.344;2023-04-03T12:52:13;21.27;;;12.35;;
44204;SDS011;30163;42.698;23.344;2023-04-03T12:54:44;22.00;;;10.70;;
44204;SDS011;30163;42.698;23.344;2023-04-03T12:57:21;20.05;;;12.60;;
44204;SDS011;30163;42.698;23.344;2023-04-03T12:59:49;21.23;;;11.98;;
44204;SDS011;30163;42.698;23.344;2023-04-03T13:04:53;17.60;;;10.80;;
44204;SDS011;30163;42.698;23.344;2023-04-03T13:07:32;25.63;;;10.98;;
44204;SDS011;30163;42.698;23.344;2023-04-03T13:09:59;19.30;;;12.35;;
44204;SDS011;30163;42.698;23.344;2023-04-03T13:12:25;24.95;;;13.85;;
44204;SDS011;30163;42.698;23.344;2023-04-03T13:14:55;27.20;;;15.48;;
44204;SDS011;30163;42.698;23.344;2023-04-03T13:17:20;31.00;;;16.58;;
44204;SDS011;30163;42.698;23.344;2023-04-03T13:19:46;34.90;;;17.45;;
44204;SDS011;30163;42.698;23.344;2023-04-03T13:24:52;30.33;;;18.65;;
44204;SDS011;30163;42.698;23.344;2023-04-03T13:27:18;28.35;;;17.85;;
44204;SDS011;30163;42.698;23.344;2023-04-03T13:29:45;31.73;;;18.65;;
44204;SDS011;30163;42.698;23.344;2023-04-03T13:32:18;39.53;;;23.75;;
44204;SDS011;30163;42.698;23.344;2023-04-03T13:34:44;53.42;;;36.00;;
44204;SDS011;30163;42.698;23.344;2023-04-03T13:37:21;59.95;;;42.10;;
44204;SDS011;30163;42.698;23.344;2023-04-03T13:39:55;48.03;;;31.42;;
44204;SDS011;30163;42.698;23.344;2023-04-03T13:42:27;38.38;;;21.73;;
44204;SDS011;30163;42.698;23.344;2023-04-03T13:45:11;25.65;;;16.40;;
44204;SDS011;30163;42.698;23.344;2023-04-03T13:47:41;26.95;;;14.48;;
44204;SDS011;30163;42.698;23.344;2023-04-03T13:55:18;23.15;;;14.55;;
44204;SDS011;30163;42.698;23.344;2023-04-03T14:00:20;24.50;;;15.20;;
44204;SDS011;30163;42.698;23.344;2023-04-03T14:02:46;26.90;;;16.23;;
44204;SDS011;30163;42.698;23.344;2023-04-03T14:05:12;30.98;;;17.98;;
44204;SDS011;30163;42.698;23.344;2023-04-03T14:07:37;34.95;;;19.00;;
44204;SDS011;30163;42.698;23.344;2023-04-03T14:10:03;35.25;;;19.48;;
44204;SDS011;30163;42.698;23.344;2023-04-03T14:12:34;43.83;;;22.23;;
44204;SDS011;30163;42.698;23.344;2023-04-03T14:15:02;34.40;;;21.80;;
44204;SDS011;30163;42.698;23.344;2023-04-03T14:17:28;29.55;;;20.25;;
44204;SDS011;30163;42.698;23.344;2023-04-03T14:19:54;32.55;;;17.73;;
44204;SDS011;30163;42.698;23.344;2023-04-03T14:22:26;25.30;;;15.10;;
44204;SDS011;30163;42.698;23.344;2023-04-03T14:24:51;24.60;;;14.95;;
44204;SDS011;30163;42.698;23.344;2023-04-03T14:27:29;20.83;;;13.52;;
44204;SDS011;30163;42.698;23.344;2023-04-03T14:29:58;21.45;;;12.73;;
44204;SDS011;30163;42.698;23.344;2023-04-03T14:32:26;21.20;;;13.50;;
44204;SDS011;30163;42.698;23.344;2023-04-03T14:34:52;23.05;;;12.95;;
44204;SDS011;30163;42.698;23.344;2023-04-03T14:37:19;22.35;;;14.05;;
44204;SDS011;30163;42.698;23.344;2023-04-03T14:39:45;22.15;;;13.20;;
44204;SDS011;30163;42.698;23.344;2023-04-03T14:42:12;27.42;;;15.00;;
44204;SDS011;30163;42.698;23.344;2023-04-03T14:44:37;19.77;;;12.57;;
44204;SDS011;30163;42.698;23.344;2023-04-03T14:47:03;23.00;;;13.23;;
44204;SDS011;30163;42.698;23.344;2023-04-03T14:49:28;18.77;;;13.35;;
44204;SDS011;30163;42.698;23.344;2023-04-03T14:51:54;31.17;;;16.23;;
44204;SDS011;30163;42.698;23.344;2023-04-03T14:54:23;33.28;;;18.45;;
44204;SDS011;30163;42.698;23.344;2023-04-03T14:56:53;37.05;;;19.13;;
44204;SDS011;30163;42.698;23.344;2023-04-03T14:59:21;34.28;;;17.95;;
44204;SDS011;30163;42.698;23.344;2023-04-03T15:01:47;28.25;;;15.73;;
44204;SDS011;30163;42.698;23.344;2023-04-03T15:04:13;24.25;;;14.30;;
44204;SDS011;30163;42.698;23.344;2023-04-03T15:06:39;20.02;;;13.18;;
44204;SDS011;30163;42.698;23.344;2023-04-03T15:09:04;18.67;;;12.23;;
44204;SDS011;30163;42.698;23.344;2023-04-03T15:11:34;20.17;;;10.93;;
44204;SDS011;30163;42.698;23.344;2023-04-03T15:14:00;16.40;;;11.13;;
44204;SDS011;30163;42.698;23.344;2023-04-03T15:16:25;18.88;;;11.48;;
44204;SDS011;30163;42.698;23.344;2023-04-03T15:18:51;16.35;;;11.13;;
44204;SDS011;30163;42.698;23.344;2023-04-03T15:21:17;16.27;;;11.40;;
44204;SDS011;30163;42.698;23.344;2023-04-03T15:23:43;16.73;;;10.40;;
44204;SDS011;30163;42.698;23.344;2023-04-03T15:26:08;15.38;;;10.95;;
44204;SDS011;30163;42.698;23.344;2023-04-03T15:28:38;16.63;;;10.85;;
44204;SDS011;30163;42.698;23.344;2023-04-03T15:31:04;17.45;;;10.82;;
44204;SDS011;30163;42.698;23.344;2023-04-03T15:33:30;23.02;;;12.23;;
44204;SDS011;30163;42.698;23.344;2023-04-03T15:35:56;22.80;;;14.00;;
44204;SDS011;30163;42.698;23.344;2023-04-03T15:38:21;21.35;;;13.82;;
44204;SDS011;30163;42.698;23.344;2023-04-03T15:40:47;19.45;;;12.65;;
44204;SDS011;30163;42.698;23.344;2023-04-03T15:43:12;23.88;;;14.48;;